sensor_id;sensor_type;location;lat;lon;timestamp;temperature;humidity
78694;SHT31;68029;51.978;5.646;2023-08-06T00:00:17;17.4;76.1
78694;SHT31;68029;51.978;5.646;2023-08-06T00:02:46;17.4;76.0
78694;SHT31;68029;51.978;5.646;2023-08-06T00:05:17;17.3;76.1
78694;SHT31;68029;51.978;5.646;2023-08-06T00:07:47;17.3;76.2
78694;SHT31;68029;51.978;5.646;2023-08-06T00:10:17;17.3;76.0
78694;SHT31;68029;51.978;5.646;2023-08-06T00:12:45;17.3;76.1
78694;SHT31;68029;51.978;5.646;2023-08-06T00:15:15;17.3;76.2
78694;SHT31;68029;51.978;5.646;2023-08-06T00:17:44;17.3;76.3
78694;SHT31;68029;51.978;5.646;2023-08-06T00:20:13;17.3;76.0
78694;SHT31;68029;51.978;5.646;2023-08-06T00:22:41;17.3;76.2
78694;SHT31;68029;51.978;5.646;2023-08-06T00:25:10;17.3;76.3
78694;SHT31;68029;51.978;5.646;2023-08-06T00:27:39;17.3;76.4
78694;SHT31;68029;51.978;5.646;2023-08-06T00:30:08;17.3;76.5
78694;SHT31;68029;51.978;5.646;2023-08-06T00:32:37;17.4;76.4
78694;SHT31;68029;51.978;5.646;2023-08-06T00:35:06;17.4;76.6
78694;SHT31;68029;51.978;5.646;2023-08-06T00:37:35;17.4;76.4
78694;SHT31;68029;51.978;5.646;2023-08-06T00:40:05;17.3;76.6
78694;SHT31;68029;51.978;5.646;2023-08-06T00:42:34;17.3;76.6
78694;SHT31;68029;51.978;5.646;2023-08-06T00:45:03;17.3;76.8
78694;SHT31;68029;51.978;5.646;2023-08-06T00:47:32;17.3;76.9
78694;SHT31;68029;51.978;5.646;2023-08-06T00:50:01;17.4;77.2
78694;SHT31;68029;51.978;5.646;2023-08-06T00:52:32;17.4;77.0
78694;SHT31;68029;51.978;5.646;2023-08-06T00:55:01;17.4;77.5
78694;SHT31;68029;51.978;5.646;2023-08-06T00:57:29;17.4;77.6
78694;SHT31;68029;51.978;5.646;2023-08-06T00:59:58;17.4;77.7
78694;SHT31;68029;51.978;5.646;2023-08-06T01:02:27;17.4;77.7
78694;SHT31;68029;51.978;5.646;2023-08-06T01:04:56;17.4;77.5
78694;SHT31;68029;51.978;5.646;2023-08-06T01:07:37;17.4;77.6
78694;SHT31;68029;51.978;5.646;2023-08-06T01:10:23;17.4;77.5
78694;SHT31;68029;51.978;5.646;2023-08-06T01:13:03;17.4;77.7
78694;SHT31;68029;51.978;5.646;2023-08-06T01:15:41;17.4;77.9
78694;SHT31;68029;51.978;5.646;2023-08-06T01:18:11;17.4;78.1
78694;SHT31;68029;51.978;5.646;2023-08-06T01:20:40;17.4;78.2
78694;SHT31;68029;51.978;5.646;2023-08-06T01:23:09;17.4;78.3
78694;SHT31;68029;51.978;5.646;2023-08-06T01:25:46;17.4;78.0
78694;SHT31;68029;51.978;5.646;2023-08-06T01:28:26;17.4;78.2
78694;SHT31;68029;51.978;5.646;2023-08-06T01:30:59;17.4;78.1
78694;SHT31;68029;51.978;5.646;2023-08-06T01:33:32;17.4;78.1
78694;SHT31;68029;51.978;5.646;2023-08-06T01:36:03;17.4;78.0
78694;SHT31;68029;51.978;5.646;2023-08-06T01:38:33;17.4;78.2
78694;SHT31;68029;51.978;5.646;2023-08-06T01:41:01;17.4;78.3
78694;SHT31;68029;51.978;5.646;2023-08-06T01:43:30;17.4;78.5
78694;SHT31;68029;51.978;5.646;2023-08-06T01:45:58;17.4;78.6
78694;SHT31;68029;51.978;5.646;2023-08-06T01:48:27;17.4;78.7
78694;SHT31;68029;51.978;5.646;2023-08-06T01:50:55;17.4;78.6
78694;SHT31;68029;51.978;5.646;2023-08-06T01:53:24;17.4;78.6
78694;SHT31;68029;51.978;5.646;2023-08-06T01:55:52;17.4;78.7
78694;SHT31;68029;51.978;5.646;2023-08-06T01:58:21;17.3;78.8
78694;SHT31;68029;51.978;5.646;2023-08-06T02:00:50;17.3;79.1
78694;SHT31;68029;51.978;5.646;2023-08-06T02:03:18;17.3;79.2
78694;SHT31;68029;51.978;5.646;2023-08-06T02:05:50;17.3;79.2
78694;SHT31;68029;51.978;5.646;2023-08-06T02:08:18;17.3;79.2
78694;SHT31;68029;51.978;5.646;2023-08-06T02:10:47;17.3;79.4
78694;SHT31;68029;51.978;5.646;2023-08-06T02:13:16;17.3;79.2
78694;SHT31;68029;51.978;5.646;2023-08-06T02:15:45;17.3;79.3
78694;SHT31;68029;51.978;5.646;2023-08-06T02:18:16;17.3;79.2
78694;SHT31;68029;51.978;5.646;2023-08-06T02:20:58;17.3;79.4
78694;SHT31;68029;51.978;5.646;2023-08-06T02:23:28;17.3;79.4
78694;SHT31;68029;51.978;5.646;2023-08-06T02:26:01;17.3;79.4
78694;SHT31;68029;51.978;5.646;2023-08-06T02:28:31;17.3;79.2
78694;SHT31;68029;51.978;5.646;2023-08-06T02:30:59;17.3;79.4
78694;SHT31;68029;51.978;5.646;2023-08-06T02:33:28;17.3;79.3
78694;SHT31;68029;51.978;5.646;2023-08-06T02:36:03;17.3;79.2
78694;SHT31;68029;51.978;5.646;2023-08-06T02:38:32;17.3;79.2
78694;SHT31;68029;51.978;5.646;2023-08-06T02:41:04;17.3;79.4
78694;SHT31;68029;51.978;5.646;2023-08-06T02:43:35;17.3;79.3
78694;SHT31;68029;51.978;5.646;2023-08-06T02:46:04;17.4;79.3
78694;SHT31;68029;51.978;5.646;2023-08-06T02:48:33;17.4;79.2
78694;SHT31;68029;51.978;5.646;2023-08-06T02:51:01;17.4;78.8
78694;SHT31;68029;51.978;5.646;2023-08-06T02:53:30;17.4;78.8
78694;SHT31;68029;51.978;5.646;2023-08-06T02:55:58;17.5;78.9
78694;SHT31;68029;51.978;5.646;2023-08-06T02:58:27;17.5;78.7
78694;SHT31;68029;51.978;5.646;2023-08-06T03:01:03;17.5;78.4
78694;SHT31;68029;51.978;5.646;2023-08-06T03:03:34;17.5;78.5
78694;SHT31;68029;51.978;5.646;2023-08-06T03:06:02;17.5;78.6
78694;SHT31;68029;51.978;5.646;2023-08-06T03:08:31;17.5;78.5
78694;SHT31;68029;51.978;5.646;2023-08-06T03:11:02;17.5;78.4
78694;SHT31;68029;51.978;5.646;2023-08-06T03:13:31;17.6;78.4
78694;SHT31;68029;51.978;5.646;2023-08-06T03:16:00;17.6;78.1
78694;SHT31;68029;51.978;5.646;2023-08-06T03:18:28;17.6;78.1
78694;SHT31;68029;51.978;5.646;2023-08-06T03:20:59;17.6;78.1
78694;SHT31;68029;51.978;5.646;2023-08-06T03:23:27;17.6;77.9
78694;SHT31;68029;51.978;5.646;2023-08-06T03:25:56;17.6;77.9
78694;SHT31;68029;51.978;5.646;2023-08-06T03:28:27;17.6;78.0
78694;SHT31;68029;51.978;5.646;2023-08-06T10:18:20;17.8;75.4
78694;SHT31;68029;51.978;5.646;2023-08-06T10:20:50;17.7;76.2
78694;SHT31;68029;51.978;5.646;2023-08-06T10:23:19;17.7;76.4
78694;SHT31;68029;51.978;5.646;2023-08-06T10:25:55;17.7;76.5
78694;SHT31;68029;51.978;5.646;2023-08-06T10:28:35;17.6;76.7
78694;SHT31;68029;51.978;5.646;2023-08-06T10:31:05;17.6;76.8
78694;SHT31;68029;51.978;5.646;2023-08-06T10:33:45;17.6;77.0
78694;SHT31;68029;51.978;5.646;2023-08-06T10:36:14;17.6;77.0
78694;SHT31;68029;51.978;5.646;2023-08-06T10:38:48;17.5;77.2
78694;SHT31;68029;51.978;5.646;2023-08-06T10:41:23;17.5;77.3
78694;SHT31;68029;51.978;5.646;2023-08-06T10:43:52;17.4;77.8
78694;SHT31;68029;51.978;5.646;2023-08-06T10:46:27;17.4;78.0
78694;SHT31;68029;51.978;5.646;2023-08-06T10:48:56;17.3;78.1
78694;SHT31;68029;51.978;5.646;2023-08-06T10:51:27;17.3;78.3
78694;SHT31;68029;51.978;5.646;2023-08-06T10:53:56;17.2;78.4
78694;SHT31;68029;51.978;5.646;2023-08-06T10:56:26;17.2;78.6
78694;SHT31;68029;51.978;5.646;2023-08-06T10:58:57;17.2;79.1
78694;SHT31;68029;51.978;5.646;2023-08-06T11:01:29;17.2;79.2
78694;SHT31;68029;51.978;5.646;2023-08-06T11:04:02;17.1;79.6
78694;SHT31;68029;51.978;5.646;2023-08-06T11:06:33;17.1;79.4
78694;SHT31;68029;51.978;5.646;2023-08-06T11:09:02;17.1;79.1
78694;SHT31;68029;51.978;5.646;2023-08-06T11:11:30;17.1;79.7
78694;SHT31;68029;51.978;5.646;2023-08-06T11:13:59;17.1;79.8
78694;SHT31;68029;51.978;5.646;2023-08-06T11:16:29;17.1;80.1
78694;SHT31;68029;51.978;5.646;2023-08-06T11:18:58;17.1;80.0
78694;SHT31;68029;51.978;5.646;2023-08-06T11:21:27;17.2;80.1
78694;SHT31;68029;51.978;5.646;2023-08-06T11:23:55;17.2;79.8
78694;SHT31;68029;51.978;5.646;2023-08-06T11:26:24;17.2;79.7
78694;SHT31;68029;51.978;5.646;2023-08-06T11:28:54;17.2;79.6
78694;SHT31;68029;51.978;5.646;2023-08-06T11:31:23;17.2;79.2
78694;SHT31;68029;51.978;5.646;2023-08-06T11:33:52;17.2;79.2
78694;SHT31;68029;51.978;5.646;2023-08-06T11:36:31;17.2;79.3
78694;SHT31;68029;51.978;5.646;2023-08-06T11:39:00;17.2;78.8
78694;SHT31;68029;51.978;5.646;2023-08-06T11:41:33;17.2;79.3
78694;SHT31;68029;51.978;5.646;2023-08-06T11:44:03;17.2;78.8
78694;SHT31;68029;51.978;5.646;2023-08-06T11:46:54;17.2;79.1
78694;SHT31;68029;51.978;5.646;2023-08-06T11:49:44;17.2;78.8
78694;SHT31;68029;51.978;5.646;2023-08-06T11:52:16;17.2;78.9
78694;SHT31;68029;51.978;5.646;2023-08-06T11:54:46;17.2;78.2
78694;SHT31;68029;51.978;5.646;2023-08-06T11:57:15;17.2;78.7
78694;SHT31;68029;51.978;5.646;2023-08-06T11:59:45;17.2;78.6
78694;SHT31;68029;51.978;5.646;2023-08-06T12:02:14;17.2;78.6
78694;SHT31;68029;51.978;5.646;2023-08-06T12:05:03;17.2;79.0
78694;SHT31;68029;51.978;5.646;2023-08-06T12:07:37;17.3;79.0
78694;SHT31;68029;51.978;5.646;2023-08-06T12:10:08;17.3;78.6
78694;SHT31;68029;51.978;5.646;2023-08-06T12:12:37;17.3;79.3
78694;SHT31;68029;51.978;5.646;2023-08-06T12:15:08;17.3;79.0
78694;SHT31;68029;51.978;5.646;2023-08-06T12:17:38;17.3;79.8
78694;SHT31;68029;51.978;5.646;2023-08-06T12:20:08;17.4;78.5
78694;SHT31;68029;51.978;5.646;2023-08-06T12:22:38;17.4;78.6
78694;SHT31;68029;51.978;5.646;2023-08-06T12:25:09;17.4;77.9
78694;SHT31;68029;51.978;5.646;2023-08-06T12:27:39;17.5;76.8
78694;SHT31;68029;51.978;5.646;2023-08-06T12:30:11;17.5;76.0
78694;SHT31;68029;51.978;5.646;2023-08-06T12:32:40;17.5;75.6
78694;SHT31;68029;51.978;5.646;2023-08-06T12:35:09;17.4;75.3
78694;SHT31;68029;51.978;5.646;2023-08-06T12:37:39;17.4;75.8
78694;SHT31;68029;51.978;5.646;2023-08-06T12:40:11;17.4;75.9
78694;SHT31;68029;51.978;5.646;2023-08-06T12:42:39;17.4;76.4
78694;SHT31;68029;51.978;5.646;2023-08-06T12:45:09;17.4;76.3
78694;SHT31;68029;51.978;5.646;2023-08-06T12:47:37;17.3;76.4
78694;SHT31;68029;51.978;5.646;2023-08-06T12:50:07;17.3;77.1
78694;SHT31;68029;51.978;5.646;2023-08-06T12:52:36;17.3;77.3
78694;SHT31;68029;51.978;5.646;2023-08-06T12:55:09;17.2;77.0
78694;SHT31;68029;51.978;5.646;2023-08-06T12:57:37;17.2;77.5
78694;SHT31;68029;51.978;5.646;2023-08-06T13:00:07;17.2;78.0
78694;SHT31;68029;51.978;5.646;2023-08-06T13:02:36;17.2;78.3
78694;SHT31;68029;51.978;5.646;2023-08-06T13:05:05;17.2;78.7
78694;SHT31;68029;51.978;5.646;2023-08-06T13:07:35;17.2;78.8
78694;SHT31;68029;51.978;5.646;2023-08-06T13:10:04;17.2;78.8
78694;SHT31;68029;51.978;5.646;2023-08-06T13:12:33;17.2;79.7
78694;SHT31;68029;51.978;5.646;2023-08-06T13:15:02;17.2;79.1
78694;SHT31;68029;51.978;5.646;2023-08-06T13:17:31;17.2;79.5
78694;SHT31;68029;51.978;5.646;2023-08-06T13:20:00;17.3;79.3
78694;SHT31;68029;51.978;5.646;2023-08-06T13:22:29;17.3;79.6
78694;SHT31;68029;51.978;5.646;2023-08-06T13:24:57;17.3;79.7
78694;SHT31;68029;51.978;5.646;2023-08-06T13:27:26;17.3;79.2
78694;SHT31;68029;51.978;5.646;2023-08-06T13:29:55;17.4;79.5
78694;SHT31;68029;51.978;5.646;2023-08-06T13:32:23;17.4;80.1
78694;SHT31;68029;51.978;5.646;2023-08-06T13:34:52;17.4;80.6
78694;SHT31;68029;51.978;5.646;2023-08-06T13:37:21;17.4;80.7
78694;SHT31;68029;51.978;5.646;2023-08-06T13:39:49;17.5;80.9
78694;SHT31;68029;51.978;5.646;2023-08-06T13:42:17;17.5;79.8
78694;SHT31;68029;51.978;5.646;2023-08-06T13:44:46;17.6;79.8
78694;SHT31;68029;51.978;5.646;2023-08-06T13:47:14;17.6;80.0
78694;SHT31;68029;51.978;5.646;2023-08-06T13:49:43;17.6;80.0
78694;SHT31;68029;51.978;5.646;2023-08-06T13:52:11;17.7;79.5
78694;SHT31;68029;51.978;5.646;2023-08-06T13:54:40;17.7;79.8
78694;SHT31;68029;51.978;5.646;2023-08-06T13:57:09;17.8;80.0
78694;SHT31;68029;51.978;5.646;2023-08-06T13:59:37;17.8;79.6
78694;SHT31;68029;51.978;5.646;2023-08-06T14:02:07;17.8;79.5
78694;SHT31;68029;51.978;5.646;2023-08-06T14:04:36;17.9;80.1
78694;SHT31;68029;51.978;5.646;2023-08-06T14:07:08;17.9;79.7
78694;SHT31;68029;51.978;5.646;2023-08-06T14:09:39;18.0;79.5
78694;SHT31;68029;51.978;5.646;2023-08-06T14:12:12;18.0;79.1
78694;SHT31;68029;51.978;5.646;2023-08-06T14:14:41;18.0;78.5
78694;SHT31;68029;51.978;5.646;2023-08-06T14:17:09;18.0;78.2
78694;SHT31;68029;51.978;5.646;2023-08-06T14:19:38;18.0;78.4
78694;SHT31;68029;51.978;5.646;2023-08-06T14:22:07;18.0;78.2
78694;SHT31;68029;51.978;5.646;2023-08-06T14:24:35;18.0;78.4
78694;SHT31;68029;51.978;5.646;2023-08-06T14:27:04;18.0;78.2
78694;SHT31;68029;51.978;5.646;2023-08-06T14:29:34;18.0;78.7
78694;SHT31;68029;51.978;5.646;2023-08-06T14:32:02;18.0;78.7
78694;SHT31;68029;51.978;5.646;2023-08-06T14:34:31;18.0;78.8
78694;SHT31;68029;51.978;5.646;2023-08-06T14:37:00;18.0;78.9
78694;SHT31;68029;51.978;5.646;2023-08-06T14:39:28;18.0;79.1
78694;SHT31;68029;51.978;5.646;2023-08-06T14:41:57;18.0;78.8
78694;SHT31;68029;51.978;5.646;2023-08-06T14:44:25;18.0;78.9
78694;SHT31;68029;51.978;5.646;2023-08-06T14:46:54;18.0;78.9
78694;SHT31;68029;51.978;5.646;2023-08-06T14:49:23;18.0;79.2
78694;SHT31;68029;51.978;5.646;2023-08-06T14:51:52;18.0;78.9
78694;SHT31;68029;51.978;5.646;2023-08-06T14:54:20;18.0;79.0
78694;SHT31;68029;51.978;5.646;2023-08-06T14:56:49;18.0;79.2
78694;SHT31;68029;51.978;5.646;2023-08-06T14:59:17;18.0;79.4
78694;SHT31;68029;51.978;5.646;2023-08-06T15:01:46;18.0;79.2
78694;SHT31;68029;51.978;5.646;2023-08-06T15:04:14;18.0;79.5
78694;SHT31;68029;51.978;5.646;2023-08-06T15:06:43;18.0;79.5
78694;SHT31;68029;51.978;5.646;2023-08-06T15:09:12;18.0;79.6
78694;SHT31;68029;51.978;5.646;2023-08-06T15:11:40;18.0;79.0
78694;SHT31;68029;51.978;5.646;2023-08-06T15:14:09;18.0;78.6
78694;SHT31;68029;51.978;5.646;2023-08-06T15:16:38;18.0;78.8
78694;SHT31;68029;51.978;5.646;2023-08-06T15:19:06;18.0;79.0
78694;SHT31;68029;51.978;5.646;2023-08-06T15:21:35;18.0;79.2
78694;SHT31;68029;51.978;5.646;2023-08-06T15:24:04;17.9;79.2
78694;SHT31;68029;51.978;5.646;2023-08-06T15:26:35;17.9;78.9
78694;SHT31;68029;51.978;5.646;2023-08-06T15:29:03;17.9;79.0
78694;SHT31;68029;51.978;5.646;2023-08-06T15:31:38;17.9;78.8
78694;SHT31;68029;51.978;5.646;2023-08-06T15:34:08;17.9;78.8
78694;SHT31;68029;51.978;5.646;2023-08-06T15:36:37;17.9;79.0
78694;SHT31;68029;51.978;5.646;2023-08-06T15:39:06;17.9;79.2
78694;SHT31;68029;51.978;5.646;2023-08-06T15:41:34;17.9;79.7
78694;SHT31;68029;51.978;5.646;2023-08-06T15:44:03;17.9;78.3
78694;SHT31;68029;51.978;5.646;2023-08-06T15:46:32;17.9;78.6
78694;SHT31;68029;51.978;5.646;2023-08-06T15:49:02;17.9;78.2
78694;SHT31;68029;51.978;5.646;2023-08-06T15:51:33;17.9;78.2
78694;SHT31;68029;51.978;5.646;2023-08-06T15:54:02;17.8;78.4
78694;SHT31;68029;51.978;5.646;2023-08-06T15:56:31;17.8;78.7
78694;SHT31;68029;51.978;5.646;2023-08-06T15:59:21;17.8;78.8
78694;SHT31;68029;51.978;5.646;2023-08-06T16:01:51;17.8;78.9
78694;SHT31;68029;51.978;5.646;2023-08-06T16:04:20;17.8;78.1
78694;SHT31;68029;51.978;5.646;2023-08-06T16:06:48;17.8;77.2
78694;SHT31;68029;51.978;5.646;2023-08-06T16:09:17;17.8;76.8
78694;SHT31;68029;51.978;5.646;2023-08-06T16:11:50;17.8;77.0
78694;SHT31;68029;51.978;5.646;2023-08-06T16:14:20;17.8;76.6
78694;SHT31;68029;51.978;5.646;2023-08-06T16:16:48;17.8;76.3
78694;SHT31;68029;51.978;5.646;2023-08-06T16:19:17;17.7;75.7
78694;SHT31;68029;51.978;5.646;2023-08-06T16:21:47;17.7;75.6
78694;SHT31;68029;51.978;5.646;2023-08-06T16:24:16;17.7;75.4
78694;SHT31;68029;51.978;5.646;2023-08-06T16:26:44;17.7;75.2
78694;SHT31;68029;51.978;5.646;2023-08-06T16:29:13;17.6;75.6
78694;SHT31;68029;51.978;5.646;2023-08-06T16:31:41;17.6;75.6
78694;SHT31;68029;51.978;5.646;2023-08-06T16:34:10;17.6;75.6
78694;SHT31;68029;51.978;5.646;2023-08-06T16:36:39;17.5;74.8
78694;SHT31;68029;51.978;5.646;2023-08-06T16:39:07;17.5;75.8
78694;SHT31;68029;51.978;5.646;2023-08-06T16:41:36;17.5;75.8
78694;SHT31;68029;51.978;5.646;2023-08-06T16:44:05;17.5;75.7
78694;SHT31;68029;51.978;5.646;2023-08-06T16:46:38;17.4;75.2
78694;SHT31;68029;51.978;5.646;2023-08-06T16:49:06;17.4;75.3
78694;SHT31;68029;51.978;5.646;2023-08-06T16:51:35;17.4;75.1
78694;SHT31;68029;51.978;5.646;2023-08-06T16:54:04;17.4;75.0
78694;SHT31;68029;51.978;5.646;2023-08-06T16:56:34;17.3;75.5
78694;SHT31;68029;51.978;5.646;2023-08-06T16:59:03;17.3;76.0
78694;SHT31;68029;51.978;5.646;2023-08-06T17:01:31;17.3;75.7
78694;SHT31;68029;51.978;5.646;2023-08-06T17:04:02;17.3;75.5
78694;SHT31;68029;51.978;5.646;2023-08-06T17:06:31;17.3;74.8
78694;SHT31;68029;51.978;5.646;2023-08-06T17:08:59;17.3;74.3
78694;SHT31;68029;51.978;5.646;2023-08-06T17:11:31;17.3;74.1
78694;SHT31;68029;51.978;5.646;2023-08-06T17:14:00;17.2;74.6
78694;SHT31;68029;51.978;5.646;2023-08-06T17:16:31;17.2;74.5
78694;SHT31;68029;51.978;5.646;2023-08-06T17:18:59;17.2;75.2
78694;SHT31;68029;51.978;5.646;2023-08-06T17:21:28;17.2;75.6
78694;SHT31;68029;51.978;5.646;2023-08-06T17:23:57;17.2;75.4
78694;SHT31;68029;51.978;5.646;2023-08-06T17:26:26;17.2;76.6
78694;SHT31;68029;51.978;5.646;2023-08-06T17:28:57;17.2;76.4
78694;SHT31;68029;51.978;5.646;2023-08-06T17:31:25;17.2;76.4
78694;SHT31;68029;51.978;5.646;2023-08-06T17:33:54;17.2;76.4
78694;SHT31;68029;51.978;5.646;2023-08-06T17:36:22;17.2;76.8
78694;SHT31;68029;51.978;5.646;2023-08-06T17:38:51;17.2;76.3
78694;SHT31;68029;51.978;5.646;2023-08-06T17:41:19;17.2;76.2
78694;SHT31;68029;51.978;5.646;2023-08-06T17:43:48;17.2;75.4
78694;SHT31;68029;51.978;5.646;2023-08-06T17:46:17;17.2;75.5
78694;SHT31;68029;51.978;5.646;2023-08-06T17:48:45;17.1;75.8
78694;SHT31;68029;51.978;5.646;2023-08-06T17:51:14;17.1;75.0
78694;SHT31;68029;51.978;5.646;2023-08-06T17:53:43;17.1;74.5
78694;SHT31;68029;51.978;5.646;2023-08-06T17:56:11;17.0;74.7
78694;SHT31;68029;51.978;5.646;2023-08-06T17:58:41;17.0;74.9
78694;SHT31;68029;51.978;5.646;2023-08-06T18:01:10;17.0;74.8
78694;SHT31;68029;51.978;5.646;2023-08-06T18:03:41;16.9;74.7
78694;SHT31;68029;51.978;5.646;2023-08-06T18:06:12;16.9;74.9
78694;SHT31;68029;51.978;5.646;2023-08-06T18:08:41;16.8;74.8
78694;SHT31;68029;51.978;5.646;2023-08-06T18:11:10;16.8;75.2
78694;SHT31;68029;51.978;5.646;2023-08-06T18:13:38;16.8;75.1
78694;SHT31;68029;51.978;5.646;2023-08-06T18:16:07;16.7;74.7
78694;SHT31;68029;51.978;5.646;2023-08-06T18:18:35;16.7;74.4
78694;SHT31;68029;51.978;5.646;2023-08-06T18:21:04;16.7;74.0
78694;SHT31;68029;51.978;5.646;2023-08-06T18:23:33;16.6;74.2
78694;SHT31;68029;51.978;5.646;2023-08-06T18:26:01;16.6;74.2
78694;SHT31;68029;51.978;5.646;2023-08-06T18:28:30;16.6;74.6
78694;SHT31;68029;51.978;5.646;2023-08-06T18:30:58;16.5;74.7
78694;SHT31;68029;51.978;5.646;2023-08-06T18:33:29;16.5;75.3
78694;SHT31;68029;51.978;5.646;2023-08-06T18:35:57;16.5;75.0
78694;SHT31;68029;51.978;5.646;2023-08-06T18:38:26;16.5;74.9
78694;SHT31;68029;51.978;5.646;2023-08-06T18:40:58;16.5;74.8
78694;SHT31;68029;51.978;5.646;2023-08-06T18:43:27;16.5;75.1
78694;SHT31;68029;51.978;5.646;2023-08-06T18:46:01;16.5;74.6
78694;SHT31;68029;51.978;5.646;2023-08-06T18:48:30;16.4;74.5
78694;SHT31;68029;51.978;5.646;2023-08-06T18:50:59;16.4;74.6
78694;SHT31;68029;51.978;5.646;2023-08-06T18:53:29;16.4;74.2
78694;SHT31;68029;51.978;5.646;2023-08-06T18:55:58;16.4;74.3
78694;SHT31;68029;51.978;5.646;2023-08-06T18:58:26;16.3;74.5
78694;SHT31;68029;51.978;5.646;2023-08-06T19:00:57;16.3;75.1
78694;SHT31;68029;51.978;5.646;2023-08-06T19:03:27;16.3;75.0
78694;SHT31;68029;51.978;5.646;2023-08-06T19:06:02;16.3;75.4
78694;SHT31;68029;51.978;5.646;2023-08-06T19:08:32;16.2;75.6
78694;SHT31;68029;51.978;5.646;2023-08-06T19:11:04;16.2;75.7
78694;SHT31;68029;51.978;5.646;2023-08-06T19:13:33;16.2;75.8
78694;SHT31;68029;51.978;5.646;2023-08-06T19:16:02;16.2;76.1
78694;SHT31;68029;51.978;5.646;2023-08-06T19:18:33;16.2;76.5
78694;SHT31;68029;51.978;5.646;2023-08-06T19:21:01;16.2;77.0
78694;SHT31;68029;51.978;5.646;2023-08-06T19:23:30;16.2;77.2
78694;SHT31;68029;51.978;5.646;2023-08-06T19:26:00;16.1;77.2
78694;SHT31;68029;51.978;5.646;2023-08-06T19:28:28;16.1;77.7
78694;SHT31;68029;51.978;5.646;2023-08-06T19:30:58;16.1;78.0
78694;SHT31;68029;51.978;5.646;2023-08-06T19:33:27;16.0;78.4
78694;SHT31;68029;51.978;5.646;2023-08-06T19:35:56;16.0;78.5
78694;SHT31;68029;51.978;5.646;2023-08-06T19:38:25;16.0;78.6
78694;SHT31;68029;51.978;5.646;2023-08-06T19:41:04;15.9;78.4
78694;SHT31;68029;51.978;5.646;2023-08-06T19:43:34;15.9;78.8
78694;SHT31;68029;51.978;5.646;2023-08-06T19:46:03;15.9;78.9
78694;SHT31;68029;51.978;5.646;2023-08-06T19:48:32;15.9;79.0
78694;SHT31;68029;51.978;5.646;2023-08-06T19:51:02;15.9;79.1
78694;SHT31;68029;51.978;5.646;2023-08-06T19:53:32;15.9;79.0
78694;SHT31;68029;51.978;5.646;2023-08-06T19:56:03;15.8;79.0
78694;SHT31;68029;51.978;5.646;2023-08-06T19:58:33;15.8;79.4
78694;SHT31;68029;51.978;5.646;2023-08-06T20:01:03;15.8;79.5
78694;SHT31;68029;51.978;5.646;2023-08-06T20:03:33;15.8;79.5
78694;SHT31;68029;51.978;5.646;2023-08-06T20:06:04;15.8;79.3
78694;SHT31;68029;51.978;5.646;2023-08-06T20:08:34;15.8;79.3
78694;SHT31;68029;51.978;5.646;2023-08-06T20:11:04;15.8;79.4
78694;SHT31;68029;51.978;5.646;2023-08-06T20:13:33;15.8;79.6
78694;SHT31;68029;51.978;5.646;2023-08-06T20:16:02;15.7;80.0
78694;SHT31;68029;51.978;5.646;2023-08-06T20:18:31;15.7;79.7
78694;SHT31;68029;51.978;5.646;2023-08-06T20:21:00;15.7;79.7
78694;SHT31;68029;51.978;5.646;2023-08-06T20:23:28;15.7;80.0
78694;SHT31;68029;51.978;5.646;2023-08-06T20:25:57;15.7;79.9
78694;SHT31;68029;51.978;5.646;2023-08-06T20:28:40;15.9;78.8
78694;SHT31;68029;51.978;5.646;2023-08-06T20:38:53;16.0;78.5
78694;SHT31;68029;51.978;5.646;2023-08-06T20:43:52;15.9;79.0
78694;SHT31;68029;51.978;5.646;2023-08-06T20:48:48;15.9;78.9
78694;SHT31;68029;51.978;5.646;2023-08-06T20:51:17;15.9;78.8
78694;SHT31;68029;51.978;5.646;2023-08-06T20:53:45;15.9;78.7
78694;SHT31;68029;51.978;5.646;2023-08-06T20:56:14;15.9;78.4
78694;SHT31;68029;51.978;5.646;2023-08-06T20:58:44;15.9;78.4
78694;SHT31;68029;51.978;5.646;2023-08-06T21:01:14;15.9;78.8
78694;SHT31;68029;51.978;5.646;2023-08-06T21:03:43;15.9;78.9
78694;SHT31;68029;51.978;5.646;2023-08-06T21:06:12;15.9;79.2
78694;SHT31;68029;51.978;5.646;2023-08-06T21:08:40;15.8;79.3
78694;SHT31;68029;51.978;5.646;2023-08-06T21:11:10;15.8;79.5
78694;SHT31;68029;51.978;5.646;2023-08-06T21:13:42;15.8;79.6
78694;SHT31;68029;51.978;5.646;2023-08-06T21:16:11;15.8;79.7
78694;SHT31;68029;51.978;5.646;2023-08-06T21:18:40;15.7;79.9
78694;SHT31;68029;51.978;5.646;2023-08-06T21:21:08;15.7;80.1
78694;SHT31;68029;51.978;5.646;2023-08-06T21:23:37;15.7;80.2
78694;SHT31;68029;51.978;5.646;2023-08-06T21:26:09;15.7;80.3
78694;SHT31;68029;51.978;5.646;2023-08-06T21:28:38;15.7;80.3
78694;SHT31;68029;51.978;5.646;2023-08-06T21:33:41;16.0;79.1
78694;SHT31;68029;51.978;5.646;2023-08-06T21:36:10;16.0;79.5
78694;SHT31;68029;51.978;5.646;2023-08-06T21:38:40;16.0;79.6
78694;SHT31;68029;51.978;5.646;2023-08-06T21:41:11;16.0;79.5
78694;SHT31;68029;51.978;5.646;2023-08-06T21:43:44;16.0;79.4
78694;SHT31;68029;51.978;5.646;2023-08-06T21:46:14;15.9;79.5
78694;SHT31;68029;51.978;5.646;2023-08-06T21:48:45;15.9;79.5
78694;SHT31;68029;51.978;5.646;2023-08-06T21:51:17;15.9;79.7
78694;SHT31;68029;51.978;5.646;2023-08-06T21:53:47;15.8;80.1
78694;SHT31;68029;51.978;5.646;2023-08-06T21:56:16;15.8;80.2
78694;SHT31;68029;51.978;5.646;2023-08-06T21:58:46;15.8;80.2
78694;SHT31;68029;51.978;5.646;2023-08-06T22:01:16;15.8;80.3
78694;SHT31;68029;51.978;5.646;2023-08-06T22:03:45;15.7;80.5
78694;SHT31;68029;51.978;5.646;2023-08-06T22:06:15;15.7;80.4
78694;SHT31;68029;51.978;5.646;2023-08-06T22:08:43;15.7;80.4
78694;SHT31;68029;51.978;5.646;2023-08-06T22:11:12;15.7;80.4
78694;SHT31;68029;51.978;5.646;2023-08-06T22:13:41;15.6;80.7
78694;SHT31;68029;51.978;5.646;2023-08-06T22:16:10;15.6;80.8
78694;SHT31;68029;51.978;5.646;2023-08-06T22:18:38;15.6;80.9
78694;SHT31;68029;51.978;5.646;2023-08-06T22:21:07;15.6;80.8
78694;SHT31;68029;51.978;5.646;2023-08-06T22:23:35;15.6;80.8
78694;SHT31;68029;51.978;5.646;2023-08-06T22:26:04;15.6;80.8
78694;SHT31;68029;51.978;5.646;2023-08-06T22:28:32;15.5;80.9
78694;SHT31;68029;51.978;5.646;2023-08-06T22:31:01;15.5;80.8
78694;SHT31;68029;51.978;5.646;2023-08-06T22:33:30;15.5;80.5
78694;SHT31;68029;51.978;5.646;2023-08-06T22:35:58;15.5;80.4
78694;SHT31;68029;51.978;5.646;2023-08-06T22:38:27;15.5;80.6
78694;SHT31;68029;51.978;5.646;2023-08-06T22:40:56;15.5;80.6
78694;SHT31;68029;51.978;5.646;2023-08-06T22:43:24;15.5;80.6
78694;SHT31;68029;51.978;5.646;2023-08-06T22:45:55;15.5;80.3
78694;SHT31;68029;51.978;5.646;2023-08-06T22:48:25;15.5;80.4
78694;SHT31;68029;51.978;5.646;2023-08-06T22:50:54;15.5;80.2
78694;SHT31;68029;51.978;5.646;2023-08-06T22:53:22;15.4;80.3
78694;SHT31;68029;51.978;5.646;2023-08-06T22:55:50;15.4;80.1
78694;SHT31;68029;51.978;5.646;2023-08-06T22:58:19;15.4;80.1
78694;SHT31;68029;51.978;5.646;2023-08-06T23:00:49;15.4;80.2
78694;SHT31;68029;51.978;5.646;2023-08-06T23:03:18;15.4;80.0
78694;SHT31;68029;51.978;5.646;2023-08-06T23:05:46;15.4;79.9
78694;SHT31;68029;51.978;5.646;2023-08-06T23:08:15;15.4;80.1
78694;SHT31;68029;51.978;5.646;2023-08-06T23:10:43;15.4;79.9
78694;SHT31;68029;51.978;5.646;2023-08-06T23:13:12;15.4;79.8
78694;SHT31;68029;51.978;5.646;2023-08-06T23:15:41;15.4;79.9
78694;SHT31;68029;51.978;5.646;2023-08-06T23:18:10;15.4;79.7
78694;SHT31;68029;51.978;5.646;2023-08-06T23:20:38;15.4;79.8